createdAt,value
2023-03-28T00:01:44.908Z,59.20
2023-03-28T00:04:15.710Z,59.10
2023-03-28T00:06:47.325Z,59.10
2023-03-28T00:09:17.180Z,59.10
2023-03-28T00:11:47.909Z,59.00
2023-03-28T00:14:17.767Z,59.00
2023-03-28T00:16:47.598Z,59.10
2023-03-28T00:19:20.570Z,59.00
2023-03-28T00:21:52.970Z,59.00
2023-03-28T00:24:24.154Z,58.90
2023-03-28T00:26:57.304Z,58.90
2023-03-28T00:29:30.981Z,58.90
2023-03-28T00:32:01.497Z,59.00
2023-03-28T00:34:31.477Z,59.00
2023-03-28T00:37:04.311Z,59.00
2023-03-28T00:39:34.636Z,59.10
2023-03-28T00:42:05.800Z,59.10
2023-03-28T00:44:56.772Z,59.10
2023-03-28T00:47:47.976Z,59.10
2023-03-28T00:50:39.968Z,59.10
2023-03-28T00:53:16.895Z,59.00
2023-03-28T00:55:54.864Z,58.90
2023-03-28T00:58:26.525Z,58.90
2023-03-28T01:00:57.968Z,59.10
2023-03-28T01:03:32.526Z,58.70
2023-03-28T01:06:05.267Z,58.60
2023-03-28T01:08:39.882Z,58.50
2023-03-28T01:11:10.118Z,58.40
2023-03-28T01:13:44.435Z,58.50
2023-03-28T01:16:16.312Z,58.30
2023-03-28T01:18:57.653Z,58.40
2023-03-28T01:22:08.599Z,58.30
2023-03-28T01:25:07.850Z,58.30
2023-03-28T01:28:18.015Z,58.20
2023-03-28T01:31:22.967Z,58.10
2023-03-28T01:34:23.129Z,58.10
2023-03-28T01:37:16.657Z,58.00
2023-03-28T01:40:18.377Z,57.80
2023-03-28T01:43:10.103Z,57.90
2023-03-28T01:45:58.274Z,57.90
2023-03-28T01:49:07.391Z,57.80
2023-03-28T01:52:00.073Z,57.80
2023-03-28T01:55:05.067Z,57.70
2023-03-28T01:58:03.985Z,57.60
2023-03-28T02:00:39.707Z,57.50
2023-03-28T02:03:30.258Z,57.50
2023-03-28T02:06:01.700Z,57.40
2023-03-28T02:08:35.092Z,57.40
2023-03-28T02:11:05.387Z,57.70
2023-03-28T02:13:57.888Z,57.50
2023-03-28T02:16:29.085Z,57.60
2023-03-28T02:19:01.811Z,57.50
2023-03-28T02:21:47.818Z,57.40
2023-03-28T02:24:17.757Z,57.30
2023-03-28T02:26:48.954Z,57.30
2023-03-28T02:29:19.289Z,57.20
2023-03-28T02:31:49.383Z,57.10
2023-03-28T02:34:19.754Z,57.10
2023-03-28T02:37:20.990Z,57.10
2023-03-28T02:40:14.326Z,57.30
2023-03-28T02:43:23.395Z,57.30
2023-03-28T02:46:32.540Z,57.30
2023-03-28T02:49:26.974Z,57.40
2023-03-28T02:52:16.720Z,57.10
2023-03-28T02:55:05.233Z,57.00
2023-03-28T02:57:40.392Z,57.00
2023-03-28T03:00:13.822Z,57.20
2023-03-28T03:02:45.865Z,57.30
2023-03-28T03:05:16.372Z,57.10
2023-03-28T03:07:46.322Z,57.10
2023-03-28T03:10:16.198Z,56.90
2023-03-28T03:12:46.690Z,57.20
2023-03-28T03:15:19.930Z,56.70
2023-03-28T03:17:49.915Z,56.50
2023-03-28T03:20:20.685Z,56.50
2023-03-28T03:22:50.567Z,56.30
2023-03-28T03:25:20.372Z,56.30
2023-03-28T03:27:50.150Z,56.10
2023-03-28T03:30:20.303Z,56.00
2023-03-28T03:32:50.167Z,55.90
2023-03-28T03:35:21.853Z,56.00
2023-03-28T03:37:52.195Z,55.70
2023-03-28T03:40:22.152Z,55.70
2023-03-28T03:42:52.434Z,55.70
2023-03-28T03:45:22.482Z,55.40
2023-03-28T03:47:52.492Z,55.10
2023-03-28T03:50:22.497Z,55.10
2023-03-28T03:52:52.940Z,55.10
2023-03-28T03:55:22.834Z,55.20
2023-03-28T03:57:52.712Z,55.00
2023-03-28T04:00:22.532Z,54.80
2023-03-28T04:02:52.536Z,54.70
2023-03-28T04:05:22.411Z,54.60
2023-03-28T04:07:52.579Z,54.60
2023-03-28T04:10:22.558Z,54.50
2023-03-28T04:12:52.558Z,54.40
2023-03-28T04:15:22.378Z,54.40
2023-03-28T04:17:52.314Z,53.60
2023-03-28T04:20:22.816Z,53.60
2023-03-28T04:22:52.768Z,53.70
2023-03-28T04:25:22.880Z,53.40
2023-03-28T04:27:56.373Z,52.90
2023-03-28T04:30:27.530Z,52.80
2023-03-28T04:32:57.402Z,53.00
2023-03-28T04:35:27.193Z,53.10
2023-03-28T04:37:59.573Z,53.10
2023-03-28T04:40:29.929Z,53.10
2023-03-28T04:42:59.834Z,52.90
2023-03-28T04:45:29.748Z,52.90
2023-03-28T04:47:59.533Z,52.80
2023-03-28T04:50:29.392Z,52.90
2023-03-28T04:52:59.619Z,52.90
2023-03-28T04:55:30.252Z,53.00
2023-03-28T04:58:00.498Z,52.60
2023-03-28T05:00:30.495Z,52.40
2023-03-28T05:03:06.792Z,52.50
2023-03-28T05:05:36.663Z,52.50
2023-03-28T05:08:06.644Z,52.40
2023-03-28T05:10:36.410Z,51.80
2023-03-28T05:13:06.272Z,51.90
2023-03-28T05:15:36.461Z,52.00
2023-03-28T05:18:07.186Z,52.10
2023-03-28T05:20:38.151Z,52.10
2023-03-28T05:23:09.129Z,51.20
2023-03-28T05:25:39.277Z,51.20
2023-03-28T05:28:09.207Z,51.40
2023-03-28T05:30:39.124Z,51.70
2023-03-28T05:33:09.089Z,51.70
2023-03-28T05:35:39.089Z,51.70
2023-03-28T05:38:09.679Z,51.70
2023-03-28T05:40:39.986Z,51.70
2023-03-28T05:43:09.822Z,51.70
2023-03-28T05:45:39.898Z,51.70
2023-03-28T05:48:09.930Z,51.50
2023-03-28T05:50:39.845Z,51.40
2023-03-28T05:53:10.434Z,51.10
2023-03-28T05:55:40.549Z,50.70
2023-03-28T05:58:10.609Z,50.90
2023-03-28T06:00:40.964Z,51.00
2023-03-28T06:03:16.587Z,50.90
2023-03-28T06:05:48.046Z,51.30
2023-03-28T06:08:18.019Z,50.70
2023-03-28T06:10:48.464Z,50.70
2023-03-28T06:13:18.327Z,50.70
2023-03-28T06:15:48.293Z,50.80
2023-03-28T06:18:18.509Z,50.50
2023-03-28T06:20:48.591Z,50.50
2023-03-28T06:23:18.500Z,50.50
2023-03-28T06:25:48.494Z,50.20
2023-03-28T06:28:18.562Z,50.00
2023-03-28T06:30:52.547Z,49.80
2023-03-28T06:33:22.678Z,49.70
2023-03-28T06:35:53.273Z,49.70
2023-03-28T06:38:23.767Z,49.80
2023-03-28T06:40:53.806Z,49.80
2023-03-28T06:43:23.687Z,49.80
2023-03-28T06:45:54.235Z,49.80
2023-03-28T06:48:24.156Z,49.70
2023-03-28T06:50:54.027Z,49.40
2023-03-28T06:53:24.272Z,49.00
2023-03-28T06:55:55.066Z,49.30
2023-03-28T06:58:26.075Z,49.40
2023-03-28T07:00:56.838Z,49.30
2023-03-28T07:03:26.820Z,49.50
2023-03-28T07:05:56.791Z,49.60
2023-03-28T07:08:27.273Z,49.50
2023-03-28T07:10:57.513Z,49.40
2023-03-28T07:13:27.637Z,49.50
2023-03-28T07:16:09.015Z,49.40
2023-03-28T07:18:39.108Z,49.40
2023-03-28T07:21:10.852Z,49.50
2023-03-28T07:23:44.148Z,49.20
2023-03-28T07:26:15.193Z,49.20
2023-03-28T07:28:45.219Z,49.20
2023-03-28T07:31:15.158Z,49.00
2023-03-28T07:33:45.071Z,49.50
2023-03-28T07:36:18.798Z,48.80
2023-03-28T07:38:49.757Z,48.40
2023-03-28T07:41:20.241Z,48.70
2023-03-28T07:43:50.296Z,49.00
2023-03-28T07:46:22.835Z,49.20
2023-03-28T07:48:52.732Z,49.00
2023-03-28T07:51:25.662Z,49.00
2023-03-28T07:53:56.019Z,49.00
2023-03-28T07:56:25.942Z,49.10
2023-03-28T07:58:56.811Z,49.00
2023-03-28T08:01:26.871Z,48.90
2023-03-28T08:04:05.598Z,49.00
2023-03-28T08:06:36.139Z,49.00
2023-03-28T08:09:08.318Z,49.10
2023-03-28T08:11:38.955Z,49.10
2023-03-28T08:14:11.335Z,49.10
2023-03-28T08:16:42.449Z,49.10
2023-03-28T08:19:12.777Z,49.10
2023-03-28T08:21:42.831Z,49.10
2023-03-28T08:24:19.623Z,49.10
2023-03-28T08:26:55.507Z,49.20
2023-03-28T08:29:25.776Z,49.20
2023-03-28T08:31:55.636Z,49.10
2023-03-28T08:34:25.648Z,49.20
2023-03-28T08:36:55.967Z,49.30
2023-03-28T08:39:26.352Z,49.30
2023-03-28T08:42:26.105Z,49.40
2023-03-28T08:45:23.252Z,49.50
2023-03-28T08:48:19.955Z,49.40
2023-03-28T08:51:03.875Z,49.50
2023-03-28T08:53:39.018Z,49.60
2023-03-28T08:56:10.728Z,49.60
2023-03-28T08:59:00.732Z,49.70
2023-03-28T09:01:34.545Z,49.70
2023-03-28T09:04:05.305Z,49.80
2023-03-28T09:06:42.825Z,49.80
2023-03-28T09:09:37.032Z,49.80
2023-03-28T09:12:41.396Z,49.90
2023-03-28T09:15:50.252Z,49.90
2023-03-28T09:18:45.167Z,49.90
2023-03-28T09:21:48.534Z,49.90
2023-03-28T09:24:44.407Z,49.90
2023-03-28T09:27:24.459Z,49.90
2023-03-28T09:29:58.516Z,49.90
2023-03-28T09:32:36.187Z,50.00
2023-03-28T09:35:14.213Z,50.00
2023-03-28T09:37:55.361Z,49.90
2023-03-28T09:40:31.338Z,49.90
2023-03-28T09:43:28.475Z,49.90
2023-03-28T09:46:05.677Z,49.90
2023-03-28T09:48:39.179Z,49.90
2023-03-28T09:51:17.309Z,49.90
2023-03-28T09:53:48.312Z,49.90
2023-03-28T09:56:36.248Z,49.90
2023-03-28T09:59:13.073Z,49.90
2023-03-28T10:01:52.055Z,49.90
2023-03-28T10:04:39.493Z,49.90
2023-03-28T10:07:21.490Z,49.90
2023-03-28T10:09:58.767Z,49.90
2023-03-28T10:12:39.921Z,49.90
2023-03-28T10:15:29.823Z,49.90
2023-03-28T10:18:03.336Z,49.80
2023-03-28T10:20:39.443Z,49.80
2023-03-28T10:23:09.470Z,49.80
2023-03-28T10:25:46.332Z,49.70
2023-03-28T10:28:38.900Z,49.70
2023-03-28T10:31:09.437Z,49.70
2023-03-28T10:33:45.734Z,49.70
2023-03-28T10:36:31.361Z,49.60
2023-03-28T10:39:02.103Z,49.50
2023-03-28T10:41:32.937Z,49.50
2023-03-28T10:44:18.427Z,50.10
2023-03-28T10:46:48.712Z,49.50
2023-03-28T10:49:21.374Z,49.50
2023-03-28T10:51:51.403Z,49.50
2023-03-28T10:54:47.774Z,49.50
2023-03-28T10:57:52.939Z,49.30
2023-03-28T11:00:36.507Z,49.30
2023-03-28T11:03:32.654Z,49.30
2023-03-28T11:06:14.091Z,49.30
2023-03-28T11:09:10.501Z,49.30
2023-03-28T11:12:01.306Z,49.30
2023-03-28T11:15:10.256Z,49.30
2023-03-28T11:18:04.568Z,49.50
2023-03-28T11:20:52.732Z,49.60
2023-03-28T11:23:50.674Z,49.80
2023-03-28T11:26:36.155Z,50.10
2023-03-28T11:29:45.085Z,50.40
2023-03-28T11:32:34.286Z,50.80
2023-03-28T11:35:43.199Z,51.80
2023-03-28T11:38:30.216Z,53.60
2023-03-28T11:41:13.475Z,57.60
2023-03-28T11:44:14.798Z,58.90
2023-03-28T11:47:08.708Z,57.00
